createdAt,value
2022-12-14T00:01:58.768Z,95046.66
2022-12-14T00:04:44.601Z,95048.97
2022-12-14T00:07:30.732Z,95056.59
2022-12-14T00:10:16.904Z,95084.59
2022-12-14T00:13:03.375Z,95086.78
2022-12-14T00:15:49.460Z,95076.47
2022-12-14T00:18:35.420Z,95083.09
2022-12-14T00:21:21.967Z,95076.81
2022-12-14T00:24:08.100Z,95054.94
2022-12-14T00:26:54.218Z,95072.81
2022-12-14T00:29:40.183Z,95059.41
2022-12-14T00:32:26.497Z,95071.16
2022-12-14T00:35:15.457Z,95075.97
2022-12-14T00:38:01.543Z,95065.53
2022-12-14T00:40:47.390Z,95076.28
2022-12-14T00:43:33.229Z,95051.13
2022-12-14T00:46:19.370Z,95075.66
2022-12-14T00:49:05.426Z,95059.09
2022-12-14T00:51:51.324Z,95055.09
2022-12-14T00:54:37.260Z,95032.41
2022-12-14T00:57:23.065Z,95050.28
2022-12-14T01:00:09.632Z,95034.72
2022-12-14T01:02:55.838Z,95055.94
2022-12-14T01:05:41.717Z,95064.03
2022-12-14T01:08:37.994Z,95064.03
2022-12-14T01:11:24.143Z,95068.69
2022-12-14T01:14:10.989Z,95035.53
2022-12-14T01:16:57.401Z,95041.69
2022-12-14T01:19:43.305Z,95059.91
2022-12-14T01:22:29.274Z,95062.06
2022-12-14T01:25:14.991Z,95059.41
2022-12-14T01:28:01.078Z,95040.00
2022-12-14T01:30:46.937Z,95074.66
2022-12-14T01:33:32.976Z,95068.00
2022-12-14T01:36:37.505Z,95066.34
2022-12-14T01:39:23.715Z,95060.06
2022-12-14T01:42:13.792Z,95066.22
2022-12-14T01:44:59.639Z,95049.94
2022-12-14T01:47:50.703Z,95050.47
2022-12-14T01:50:40.922Z,95046.66
2022-12-14T01:53:27.207Z,95045.00
2022-12-14T01:56:14.644Z,95046.16
2022-12-14T01:59:03.475Z,95040.88
2022-12-14T02:01:50.019Z,95042.00
2022-12-14T02:04:39.448Z,95042.19
2022-12-14T02:07:26.791Z,95042.53
2022-12-14T02:10:13.119Z,95013.03
2022-12-14T02:13:07.147Z,95014.03
2022-12-14T02:15:54.010Z,95038.22
2022-12-14T02:18:40.388Z,95032.22
2022-12-14T02:21:47.421Z,95033.88
2022-12-14T02:25:07.528Z,95026.09
2022-12-14T02:28:02.933Z,95034.88
2022-12-14T02:30:57.387Z,95027.75
2022-12-14T02:33:54.919Z,94997.44
2022-12-14T02:36:41.103Z,94998.44
2022-12-14T02:40:03.797Z,95014.38
2022-12-14T02:43:13.125Z,94998.94
2022-12-14T02:46:27.580Z,95020.63
2022-12-14T02:49:19.744Z,95017.34
2022-12-14T02:52:24.784Z,95015.00
2022-12-14T02:55:18.885Z,94994.16
2022-12-14T02:58:27.312Z,94992.50
2022-12-14T03:01:16.124Z,95006.88
2022-12-14T03:04:03.569Z,94986.53
2022-12-14T03:06:58.047Z,95002.59
2022-12-14T03:09:44.216Z,94972.59
2022-12-14T03:12:30.617Z,94986.53
2022-12-14T03:15:18.705Z,94978.75
2022-12-14T03:18:06.538Z,94987.34
2022-12-14T03:20:54.513Z,94975.94
2022-12-14T03:23:43.505Z,94993.97
2022-12-14T03:26:30.908Z,94991.81
2022-12-14T03:29:29.033Z,94974.13
2022-12-14T03:32:20.189Z,94990.19
2022-12-14T03:35:23.883Z,94975.94
2022-12-14T03:38:33.728Z,94967.81
2022-12-14T03:41:29.871Z,94967.97
2022-12-14T03:44:51.384Z,94959.88
2022-12-14T03:48:03.346Z,94984.19
2022-12-14T03:51:14.287Z,94967.66
2022-12-14T03:54:19.067Z,94978.25
2022-12-14T03:57:07.882Z,94977.25
2022-12-14T04:00:04.707Z,94970.28
2022-12-14T04:03:12.094Z,94971.28
2022-12-14T04:06:18.824Z,94967.31
2022-12-14T04:09:10.753Z,94974.78
2022-12-14T04:12:25.852Z,94969.97
2022-12-14T04:15:44.049Z,94968.97
2022-12-14T04:18:59.232Z,94964.16
2022-12-14T04:22:16.533Z,94983.53
2022-12-14T04:25:23.506Z,94975.28
2022-12-14T04:28:35.373Z,94968.16
2022-12-14T04:31:24.225Z,94978.88
2022-12-14T04:34:12.161Z,94970.63
2022-12-14T04:37:01.074Z,94971.44
2022-12-14T04:40:14.672Z,94968.78
2022-12-14T04:43:08.072Z,94982.88
2022-12-14T04:46:28.168Z,94946.44
2022-12-14T04:49:21.918Z,94964.16
2022-12-14T04:52:31.016Z,94963.16
2022-12-14T04:55:23.505Z,94939.50
2022-12-14T04:58:20.283Z,94973.94
2022-12-14T05:01:20.156Z,94967.47
2022-12-14T05:04:18.521Z,94962.84
2022-12-14T05:07:22.184Z,94966.66
2022-12-14T05:10:37.667Z,94955.53
2022-12-14T05:13:35.565Z,94961.84
2022-12-14T05:16:23.585Z,94959.03
2022-12-14T05:19:10.312Z,94961.00
2022-12-14T05:21:56.395Z,94960.53
2022-12-14T05:24:42.311Z,94972.78
2022-12-14T05:27:28.219Z,94950.75
2022-12-14T05:30:14.279Z,94988.19
2022-12-14T05:33:00.618Z,94975.25
2022-12-14T05:35:46.775Z,94976.56
2022-12-14T05:38:32.900Z,94981.56
2022-12-14T05:41:19.013Z,94985.34
2022-12-14T05:44:04.984Z,94981.19
2022-12-14T05:46:51.241Z,94978.22
2022-12-14T05:49:37.234Z,94953.88
2022-12-14T05:52:26.908Z,94953.22
2022-12-14T05:55:13.250Z,94975.06
2022-12-14T05:57:59.127Z,94979.72
2022-12-14T06:00:45.077Z,94987.31
2022-12-14T06:03:31.314Z,94980.72
2022-12-14T06:06:17.522Z,94980.56
2022-12-14T06:09:07.005Z,94974.09
2022-12-14T06:11:53.473Z,94965.97
2022-12-14T06:14:39.780Z,94967.97
2022-12-14T06:17:25.776Z,94965.16
2022-12-14T06:20:12.769Z,94963.31
2022-12-14T06:22:58.735Z,94969.44
2022-12-14T06:25:44.652Z,94975.44
2022-12-14T06:28:30.794Z,94979.06
2022-12-14T06:31:28.490Z,94963.50
2022-12-14T06:34:14.985Z,94980.56
2022-12-14T06:37:01.198Z,94972.59
2022-12-14T06:39:53.931Z,94965.97
2022-12-14T06:42:40.260Z,94985.34
2022-12-14T06:45:26.167Z,94969.81
2022-12-14T06:48:12.020Z,94996.63
2022-12-14T06:51:02.123Z,94990.84
2022-12-14T06:53:51.674Z,94984.19
2022-12-14T06:56:38.260Z,95006.38
2022-12-14T06:59:24.252Z,94993.16
2022-12-14T07:02:11.127Z,94975.25
2022-12-14T07:04:57.176Z,95011.69
2022-12-14T07:07:43.239Z,94989.50
2022-12-14T07:10:29.551Z,94998.28
2022-12-14T07:13:15.402Z,95011.03
2022-12-14T07:16:02.248Z,95010.53
2022-12-14T07:18:49.170Z,94996.78
2022-12-14T07:21:35.350Z,94996.09
2022-12-14T07:24:21.152Z,95000.91
2022-12-14T07:27:07.695Z,94979.38
2022-12-14T07:29:53.856Z,94969.91
2022-12-14T07:32:39.677Z,94975.53
2022-12-14T07:35:25.765Z,94989.13
2022-12-14T07:38:12.067Z,94996.09
2022-12-14T07:41:10.084Z,94983.16
2022-12-14T07:43:57.453Z,95001.88
2022-12-14T07:46:43.985Z,94991.25
2022-12-14T07:49:29.789Z,94990.81
2022-12-14T07:52:17.455Z,94988.63
2022-12-14T07:55:03.930Z,95008.00
2022-12-14T07:57:49.874Z,95010.66
2022-12-14T08:00:35.767Z,95012.66
2022-12-14T08:03:21.888Z,95028.72
2022-12-14T08:06:08.594Z,95011.00
2022-12-14T08:08:55.615Z,95011.66
2022-12-14T08:11:41.549Z,95017.97
2022-12-14T08:14:27.671Z,95023.91
2022-12-14T08:17:13.506Z,95014.63
2022-12-14T08:19:59.512Z,95028.22
2022-12-14T08:22:45.464Z,95021.75
2022-12-14T08:25:31.393Z,95020.06
2022-12-14T08:28:17.352Z,95007.69
2022-12-14T08:31:06.517Z,95020.59
2022-12-14T08:33:52.959Z,95026.38
2022-12-14T08:36:39.216Z,95022.25
2022-12-14T08:39:25.243Z,95034.50
2022-12-14T08:42:11.327Z,95022.72
2022-12-14T08:44:57.838Z,95003.31
2022-12-14T08:47:43.733Z,95002.00
2022-12-14T08:50:29.737Z,95011.25
2022-12-14T08:53:15.898Z,95020.91
2022-12-14T08:56:12.698Z,95020.53
2022-12-14T08:58:58.881Z,94998.84
2022-12-14T09:01:44.809Z,94996.16
2022-12-14T09:04:30.914Z,95005.78
2022-12-14T09:07:16.852Z,95021.22
2022-12-14T09:10:03.082Z,94994.00
2022-12-14T09:12:49.396Z,94991.03
2022-12-14T09:15:35.375Z,95000.47
2022-12-14T09:18:21.227Z,94995.31
2022-12-14T09:21:08.132Z,94989.69
2022-12-14T09:23:59.223Z,95007.91
2022-12-14T09:26:46.938Z,94988.00
2022-12-14T09:29:33.065Z,94990.31
2022-12-14T09:32:19.356Z,94983.50
2022-12-14T09:35:05.544Z,94981.66
2022-12-14T09:37:52.240Z,94975.19
2022-12-14T09:40:39.981Z,94989.31
2022-12-14T09:43:36.949Z,94985.00
2022-12-14T09:46:47.267Z,94971.91
2022-12-14T09:49:42.586Z,94955.34
2022-12-14T09:53:00.491Z,94972.03
2022-12-14T09:55:48.913Z,94944.53
2022-12-14T09:58:35.314Z,94964.22
2022-12-14T10:01:22.283Z,94966.69
2022-12-14T10:04:29.862Z,94978.97
2022-12-14T10:07:22.337Z,94961.56
2022-12-14T10:10:26.750Z,94947.50
2022-12-14T10:13:39.108Z,94958.75
2022-12-14T10:16:51.620Z,94964.72
2022-12-14T10:19:53.250Z,94956.06
2022-12-14T10:22:43.969Z,94960.22
2022-12-14T10:25:32.995Z,94927.25
2022-12-14T10:28:21.647Z,94932.38
2022-12-14T10:31:15.500Z,94940.28
2022-12-14T10:34:20.858Z,94918.88
2022-12-14T10:37:20.671Z,94939.19
2022-12-14T10:40:17.618Z,94914.53
2022-12-14T10:43:46.936Z,94916.50
2022-12-14T10:47:05.377Z,94918.97
2022-12-14T10:50:16.468Z,94892.94
2022-12-14T10:53:03.404Z,94896.94
2022-12-14T10:55:52.448Z,94876.94
2022-12-14T10:58:38.355Z,94869.56
2022-12-14T11:01:24.271Z,94882.13
2022-12-14T11:04:30.315Z,94891.59
2022-12-14T11:07:18.818Z,94886.91
2022-12-14T11:10:19.117Z,94892.41
2022-12-14T11:13:07.890Z,94877.53
2022-12-14T11:15:53.913Z,94896.28
2022-12-14T11:18:40.818Z,94896.56
2022-12-14T11:21:38.349Z,94891.06
2022-12-14T11:24:27.062Z,94898.31
2022-12-14T11:27:14.595Z,94896.66
2022-12-14T11:30:00.678Z,94873.91
2022-12-14T11:32:47.821Z,94874.78
2022-12-14T11:35:34.847Z,94847.53
2022-12-14T11:38:21.964Z,94827.47
2022-12-14T11:41:11.737Z,94844.63
2022-12-14T11:44:16.805Z,94835.75
2022-12-14T11:47:12.220Z,94828.75
2022-12-14T11:49:58.554Z,94833.44
2022-12-14T11:52:44.966Z,94816.75
2022-12-14T11:55:31.164Z,94834.13
2022-12-14T11:58:29.768Z,94845.72
2022-12-14T12:01:19.087Z,94841.63
2022-12-14T12:04:12.394Z,94833.84
2022-12-14T12:07:04.241Z,94833.44
2022-12-14T12:09:51.072Z,94821.38
2022-12-14T12:12:37.319Z,94818.88
2022-12-14T12:15:30.030Z,94828.53
2022-12-14T12:18:15.875Z,94829.16
2022-12-14T12:21:18.827Z,94836.13
2022-12-14T12:24:27.333Z,94833.53
2022-12-14T12:27:17.494Z,94820.56
2022-12-14T12:30:24.970Z,94824.56
2022-12-14T12:33:29.561Z,94817.97
2022-12-14T12:36:23.562Z,94824.19
2022-12-14T12:39:16.600Z,94807.41
2022-12-14T12:42:13.563Z,94809.97
2022-12-14T12:45:14.006Z,94804.66
2022-12-14T12:48:05.355Z,94798.88
2022-12-14T12:51:03.001Z,94813.28
2022-12-14T12:54:01.619Z,94802.38
2022-12-14T12:56:50.155Z,94808.16
2022-12-14T12:59:48.055Z,94823.28
2022-12-14T13:02:44.937Z,94814.00
2022-12-14T13:05:49.846Z,94822.06
2022-12-14T13:08:39.274Z,94814.75
2022-12-14T13:11:31.564Z,94831.72
2022-12-14T13:14:42.679Z,94808.94
2022-12-14T13:17:55.586Z,94819.94
2022-12-14T13:20:41.708Z,94830.88
2022-12-14T13:23:44.868Z,94821.25
2022-12-14T13:27:16.950Z,94804.66
2022-12-14T13:30:18.850Z,94787.63
2022-12-14T13:33:19.907Z,94809.59
2022-12-14T13:36:20.975Z,94775.69
2022-12-14T13:39:25.240Z,94802.38
2022-12-14T13:42:30.238Z,94794.31
2022-12-14T13:45:27.619Z,94795.59
2022-12-14T13:48:28.394Z,94788.16
2022-12-14T13:51:31.590Z,94801.44
2022-12-14T13:54:46.821Z,94798.13
2022-12-14T13:57:32.714Z,94783.84
2022-12-14T14:00:43.535Z,94796.47
2022-12-14T14:03:35.986Z,94799.41
2022-12-14T14:06:38.314Z,94806.75
2022-12-14T14:09:30.307Z,94802.56
2022-12-14T14:12:36.357Z,94815.66
2022-12-14T14:15:32.364Z,94805.03
2022-12-14T14:18:25.622Z,94799.41
2022-12-14T14:21:20.767Z,94792.81
2022-12-14T14:24:12.801Z,94787.16
2022-12-14T14:27:17.409Z,94790.56
2022-12-14T14:30:20.884Z,94770.66
2022-12-14T14:33:47.199Z,94769.47
2022-12-14T14:36:36.037Z,94761.63
2022-12-14T14:39:55.424Z,94741.25
2022-12-14T14:43:28.509Z,94764.00
2022-12-14T14:46:22.226Z,94764.09
2022-12-14T14:49:22.616Z,94756.19
2022-12-14T14:52:38.479Z,94762.16
2022-12-14T14:55:52.767Z,94772.88
2022-12-14T14:58:41.635Z,94762.25
2022-12-14T15:01:29.086Z,94752.16
2022-12-14T15:04:21.538Z,94769.03
2022-12-14T15:07:16.117Z,94775.38
2022-12-14T15:10:29.626Z,94774.72
2022-12-14T15:13:25.818Z,94770.66
2022-12-14T15:16:28.754Z,94763.16
2022-12-14T15:19:33.746Z,94756.94
2022-12-14T15:22:22.303Z,94761.78
2022-12-14T15:25:31.705Z,94761.97
2022-12-14T15:28:20.600Z,94757.47
2022-12-14T15:31:06.682Z,94756.09
2022-12-14T15:33:52.851Z,94720.66
2022-12-14T15:36:42.212Z,94757.59
2022-12-14T15:39:39.949Z,94760.13
2022-12-14T15:42:27.153Z,94746.69
2022-12-14T15:45:16.281Z,94718.16
2022-12-14T15:48:30.332Z,94725.59
2022-12-14T15:51:17.997Z,94729.72
2022-12-14T15:54:06.083Z,94728.16
2022-12-14T15:56:55.647Z,94721.38
2022-12-14T15:59:43.552Z,94745.75
2022-12-14T16:02:32.968Z,94733.84
2022-12-14T16:05:22.185Z,94737.44
2022-12-14T16:08:09.961Z,94725.78
2022-12-14T16:10:58.703Z,94747.22
2022-12-14T16:13:45.320Z,94750.06
2022-12-14T16:16:31.345Z,94727.41
2022-12-14T16:19:28.187Z,94742.75
2022-12-14T16:22:29.408Z,94735.88
2022-12-14T16:25:19.210Z,94743.75
2022-12-14T16:28:41.987Z,94722.47
2022-12-14T16:31:28.216Z,94738.78
2022-12-14T16:34:16.957Z,94731.28
2022-12-14T16:40:32.134Z,94724.69
2022-12-14T16:43:28.632Z,94714.69
2022-12-14T16:46:16.593Z,94709.47
2022-12-14T16:49:30.373Z,94711.19
2022-12-14T16:52:17.549Z,94691.84
2022-12-14T16:55:15.793Z,94676.56
2022-12-14T16:58:02.410Z,94666.13
2022-12-14T17:00:58.821Z,94653.19
2022-12-14T17:03:51.916Z,94636.59
2022-12-14T17:06:46.069Z,94641.34
2022-12-14T17:09:33.756Z,94630.66
2022-12-14T17:12:19.580Z,94629.47
2022-12-14T17:15:05.648Z,94636.25
2022-12-14T17:17:54.140Z,94624.06
2022-12-14T17:20:40.249Z,94625.69
2022-12-14T17:23:26.344Z,94616.09
2022-12-14T17:26:19.885Z,94625.81
2022-12-14T17:29:11.109Z,94610.03
2022-12-14T17:32:01.180Z,94603.31
2022-12-14T17:34:47.415Z,94603.16
2022-12-14T17:37:36.473Z,94550.97
2022-12-14T17:40:23.042Z,94565.50
2022-12-14T17:43:13.311Z,94573.38
2022-12-14T17:46:03.387Z,94564.75
2022-12-14T17:48:49.902Z,94574.00
2022-12-14T17:51:41.847Z,94558.59
2022-12-14T17:54:29.297Z,94552.56
2022-12-14T17:57:20.961Z,94529.16
2022-12-14T18:00:25.937Z,94556.75
2022-12-14T18:03:13.640Z,94554.56
2022-12-14T18:05:59.803Z,94550.44
2022-12-14T18:08:46.725Z,94548.63
2022-12-14T18:11:33.159Z,94546.13
2022-12-14T18:14:19.295Z,94531.19
2022-12-14T18:17:11.075Z,94523.59
2022-12-14T18:19:57.418Z,94527.16
2022-12-14T18:22:44.964Z,94532.53
2022-12-14T18:25:38.369Z,94522.72
2022-12-14T18:28:25.019Z,94514.94
2022-12-14T18:31:36.432Z,94511.00
2022-12-14T18:34:22.808Z,94506.97
2022-12-14T18:37:08.784Z,94493.47
2022-12-14T18:39:54.751Z,94493.47
2022-12-14T18:42:40.992Z,94493.72
2022-12-14T18:45:30.270Z,94482.69
2022-12-14T18:48:16.283Z,94474.94
2022-12-14T18:51:02.483Z,94460.03
2022-12-14T18:53:58.268Z,94466.78
2022-12-14T18:56:44.131Z,94473.56
2022-12-14T18:59:30.849Z,94461.47
2022-12-14T19:02:17.251Z,94452.88
2022-12-14T19:05:04.466Z,94448.78
2022-12-14T19:07:50.859Z,94444.06
2022-12-14T19:10:40.025Z,94431.19
2022-12-14T19:13:26.484Z,94422.59
2022-12-14T19:16:13.003Z,94418.72
2022-12-14T19:18:59.751Z,94404.59
2022-12-14T19:21:45.634Z,94407.09
2022-12-14T19:24:31.560Z,94407.22
2022-12-14T19:27:36.316Z,94422.41
2022-12-14T19:30:24.270Z,94433.47
2022-12-14T19:33:10.663Z,94437.31
2022-12-14T19:35:57.267Z,94425.88
2022-12-14T19:38:49.216Z,94429.56
2022-12-14T19:41:35.826Z,94437.56
2022-12-14T19:44:21.965Z,94435.31
2022-12-14T19:47:10.554Z,94446.19
2022-12-14T19:49:57.150Z,94444.13
2022-12-14T19:52:43.865Z,94395.19
2022-12-14T19:55:30.145Z,94397.69
2022-12-14T19:58:16.262Z,94399.97
2022-12-14T20:01:08.214Z,94413.28
2022-12-14T20:03:54.312Z,94399.16
2022-12-14T20:06:40.856Z,94393.63
2022-12-14T20:09:27.726Z,94360.72
2022-12-14T20:12:13.921Z,94337.22
2022-12-14T20:15:00.065Z,94280.38
2022-12-14T20:17:45.936Z,94315.34
2022-12-14T20:20:32.255Z,94354.03
2022-12-14T20:23:20.505Z,94313.25
2022-12-14T20:26:14.420Z,94280.91
2022-12-14T20:29:01.511Z,94311.25
2022-12-14T20:31:47.688Z,94291.19
2022-12-14T20:34:34.233Z,94269.06
2022-12-14T20:37:20.408Z,94264.81
2022-12-14T20:40:07.020Z,94247.22
2022-12-14T20:42:54.249Z,94269.75
2022-12-14T20:45:41.650Z,94300.88
2022-12-14T20:48:27.506Z,94306.16
2022-12-14T20:51:13.592Z,94307.25
2022-12-14T20:53:59.819Z,94280.00
2022-12-14T20:56:49.457Z,94288.84
2022-12-14T20:59:35.742Z,94326.34
2022-12-14T21:02:23.630Z,94305.69
2022-12-14T21:05:09.639Z,94277.50
2022-12-14T21:07:55.459Z,94304.09
2022-12-14T21:10:41.945Z,94311.28
2022-12-14T21:13:27.937Z,94296.53
2022-12-14T21:16:14.233Z,94300.88
2022-12-14T21:19:00.372Z,94328.13
2022-12-14T21:21:51.639Z,94290.44
2022-12-14T21:27:46.025Z,94346.38
2022-12-14T21:30:32.245Z,94374.88
2022-12-14T21:33:18.333Z,94381.81
2022-12-14T21:36:08.779Z,94372.59
2022-12-14T21:38:55.280Z,94383.31
2022-12-14T21:42:00.378Z,94350.31
2022-12-14T21:44:48.400Z,94316.13
2022-12-14T21:47:34.412Z,94322.91
2022-12-14T21:50:20.486Z,94339.53
2022-12-14T21:53:06.522Z,94318.59
2022-12-14T21:55:52.498Z,94336.88
2022-12-14T21:58:38.650Z,94314.53
2022-12-14T22:01:24.684Z,94301.16
2022-12-14T22:04:11.178Z,94313.88
2022-12-14T22:06:58.448Z,94364.91
2022-12-14T22:09:50.073Z,94342.19
2022-12-14T22:12:36.563Z,94347.31
2022-12-14T22:15:22.821Z,94307.94
2022-12-14T22:18:08.759Z,94322.97
2022-12-14T22:21:03.018Z,94300.59
2022-12-14T22:23:49.029Z,94296.94
2022-12-14T22:26:35.232Z,94289.34
2022-12-14T22:29:22.302Z,94292.03
2022-12-14T22:32:08.544Z,94278.69
2022-12-14T22:34:54.752Z,94262.09
2022-12-14T22:37:40.875Z,94250.81
2022-12-14T22:40:27.777Z,94236.28
2022-12-14T22:43:14.452Z,94247.75
2022-12-14T22:46:02.490Z,94241.19
2022-12-14T22:48:48.685Z,94213.09
2022-12-14T22:51:34.681Z,94253.88
2022-12-14T22:54:26.212Z,94275.22
2022-12-14T22:57:17.504Z,94277.47
2022-12-14T23:00:11.411Z,94290.59
2022-12-14T23:02:58.145Z,94292.84
2022-12-14T23:05:44.287Z,94292.44
2022-12-14T23:08:30.096Z,94295.94
2022-12-14T23:11:34.786Z,94307.63
2022-12-14T23:14:40.049Z,94319.09
2022-12-14T23:17:44.721Z,94293.47
2022-12-14T23:20:49.438Z,94298.19
2022-12-14T23:23:57.172Z,94305.75
2022-12-14T23:27:07.268Z,94298.38
2022-12-14T23:30:14.203Z,94286.28
2022-12-14T23:33:19.163Z,94292.25
2022-12-14T23:36:24.317Z,94328.13
2022-12-14T23:39:28.990Z,94346.78
2022-12-14T23:42:33.727Z,94369.56
2022-12-14T23:45:38.258Z,94361.13
2022-12-14T23:48:42.451Z,94382.28
2022-12-14T23:51:47.827Z,94419.97
2022-12-14T23:54:52.583Z,94433.09
2022-12-14T23:57:57.307Z,94444.16
